Time;durP1;ratioP1;P1;durP2;ratioP2;P2;SDS_P1;SDS_P2;PMS_P1;PMS_P2;Temp;Humidity;BMP_temperature;BMP_pressure;BME280_temperature;BME280_humidity;BME280_pressure;Samples;Min_cycle;Max_cycle;Signal;HPM_P1;HPM_P2
2023/03/28 00:02:19;;;;;;;2.83;1.42;;;-1.80;99.90;;;;;;4851578;29;20138;-73
2023/03/28 00:04:48;;;;;;;5.50;1.23;;;-1.80;99.90;;;;;;4849984;29;20048;-67
2023/03/28 00:07:15;;;;;;;9.83;2.50;;;-1.70;99.90;;;;;;4844897;29;20068;-64
2023/03/28 00:09:42;;;;;;;6.93;2.67;;;-1.70;99.90;;;;;;4843989;29;20054;-64
2023/03/28 00:12:09;;;;;;;4.85;1.35;;;-1.60;99.90;;;;;;4838144;29;20093;-65
2023/03/28 00:14:37;;;;;;;1.73;1.50;;;-1.60;99.90;;;;;;4842677;29;20799;-65
2023/03/28 00:17:06;;;;;;;3.88;1.98;;;-1.70;99.90;;;;;;4844323;29;20547;-66
2023/03/28 00:19:33;;;;;;;3.50;1.70;;;-1.70;99.90;;;;;;4846543;29;20045;-64
2023/03/28 00:22:00;;;;;;;8.20;2.05;;;-1.70;99.90;;;;;;4850136;29;20052;-69
2023/03/28 00:24:27;;;;;;;4.50;1.42;;;-1.70;99.90;;;;;;4843987;29;20874;-66
2023/03/28 00:26:54;;;;;;;3.53;1.70;;;-1.70;99.90;;;;;;4845955;29;20049;-65
2023/03/28 00:29:24;;;;;;;6.80;2.28;;;-1.70;99.90;;;;;;4841271;29;20552;-67
2023/03/28 00:31:51;;;;;;;;;;;-1.70;99.90;;;;;;4846656;29;20052;-68
2023/03/28 00:34:18;;;;;;;3.88;1.40;;;-1.70;99.90;;;;;;4841153;29;20355;-69
2023/03/28 00:36:45;;;;;;;4.75;1.38;;;-1.70;99.90;;;;;;4847303;29;20059;-67
2023/03/28 00:39:13;;;;;;;3.63;1.50;;;-1.60;99.90;;;;;;4842769;29;20058;-71
2023/03/28 00:41:42;;;;;;;6.22;1.55;;;-1.60;99.90;;;;;;4846311;29;20080;-69
2023/03/28 00:44:47;;;;;;;4.67;1.23;;;-1.70;99.90;;;;;;4838539;29;20049;-65
2023/03/28 00:47:29;;;;;;;4.95;1.60;;;-1.70;99.90;;;;;;4848537;29;21862;-75
2023/03/28 00:50:05;;;;;;;3.67;1.40;;;-1.70;99.90;;;;;;4843535;29;20045;-68
2023/03/28 00:52:55;;;;;;;3.28;1.70;;;-1.70;99.90;;;;;;4845241;29;20054;-67
2023/03/28 00:55:29;;;;;;;2.42;1.10;;;-1.70;99.90;;;;;;4839535;29;20408;-68
2023/03/28 00:57:57;;;;;;;1.35;0.95;;;-1.60;99.90;;;;;;4844946;29;20045;-69
2023/03/28 01:00:25;;;;;;;6.40;1.58;;;-1.60;99.90;;;;;;4840424;29;20085;-69
2023/03/28 01:02:57;;;;;;;3.55;1.42;;;-1.60;99.90;;;;;;4860525;29;20059;-69
2023/03/28 01:05:30;;;;;;;3.20;1.73;;;-1.60;99.90;;;;;;4843726;29;20396;-65
2023/03/28 01:08:04;;;;;;;2.47;1.42;;;-1.60;99.90;;;;;;4847786;29;20496;-72
2023/03/28 01:10:32;;;;;;;2.28;1.52;;;-1.70;99.90;;;;;;4845923;29;20503;-68
2023/03/28 01:13:00;;;;;;;4.57;0.98;;;-1.70;99.90;;;;;;4846799;29;20050;-65
2023/03/28 01:15:28;;;;;;;5.57;1.73;;;-1.70;99.90;;;;;;4843948;29;20114;-75
2023/03/28 01:18:09;;;;;;;3.08;1.35;;;-1.60;99.90;;;;;;4856733;29;20112;-69
2023/03/28 01:21:12;;;;;;;4.07;1.67;;;-1.60;99.90;;;;;;4845887;29;20046;-68
2023/03/28 01:24:08;;;;;;;4.53;1.10;;;-1.60;99.90;;;;;;4846826;29;20053;-64
2023/03/28 01:26:43;;;;;;;2.35;1.95;;;-1.60;99.90;;;;;;4846358;29;20045;-67
2023/03/28 01:29:43;;;;;;;4.65;2.03;;;-1.60;99.90;;;;;;4855089;29;20682;-64
2023/03/28 01:32:50;;;;;;;2.80;1.45;;;-1.70;99.90;;;;;;4858403;29;20042;-67
2023/03/28 01:35:53;;;;;;;5.03;2.25;;;-1.80;99.90;;;;;;4842601;29;20038;-68
2023/03/28 01:38:46;;;;;;;4.93;1.20;;;-1.80;99.90;;;;;;4844953;29;20057;-64
2023/03/28 01:41:31;;;;;;;5.65;2.72;;;-1.80;99.90;;;;;;4845432;29;20133;-65
2023/03/28 01:44:09;;;;;;;3.78;1.67;;;-1.80;99.90;;;;;;4841394;29;20648;-68
2023/03/28 01:47:06;;;;;;;2.72;1.45;;;-1.80;99.90;;;;;;4849126;29;20075;-68
2023/03/28 01:49:56;;;;;;;5.53;1.20;;;-1.80;99.90;;;;;;4827922;29;20050;-66
2023/03/28 01:52:39;;;;;;;3.00;1.73;;;-1.80;99.90;;;;;;4849706;29;20041;-63
2023/03/28 01:55:25;;;;;;;1.70;1.55;;;-1.70;99.90;;;;;;4844488;29;20060;-68
2023/03/28 01:58:05;;;;;;;7.35;1.73;;;-1.80;99.90;;;;;;4863770;29;20080;-65
2023/03/28 02:00:53;;;;;;;9.98;1.73;;;-1.70;99.90;;;;;;4865993;29;20053;-67
2023/03/28 02:03:25;;;;;;;3.13;1.63;;;-1.70;99.90;;;;;;4860937;29;20045;-75
2023/03/28 02:06:02;;;;;;;2.03;0.90;;;-1.80;99.90;;;;;;4852529;29;20056;-68
2023/03/28 02:08:33;;;;;;;10.20;2.55;;;-1.80;99.90;;;;;;4851786;29;20053;-69
2023/03/28 02:11:33;;;;;;;2.47;1.33;;;-1.70;99.90;;;;;;4849779;29;20053;-68
2023/03/28 02:14:24;;;;;;;4.68;1.65;;;-1.70;99.90;;;;;;4859791;29;20190;-71
2023/03/28 02:17:14;;;;;;;2.30;1.52;;;-1.80;99.90;;;;;;4846617;29;20182;-63
2023/03/28 02:19:54;;;;;;;6.47;2.38;;;-1.70;99.90;;;;;;4847942;29;20448;-66
2023/03/28 02:22:51;;;;;;;7.03;2.35;;;-1.70;99.90;;;;;;4846536;29;20042;-69
2023/03/28 02:25:36;;;;;;;4.72;1.73;;;-1.70;99.90;;;;;;4852843;29;20053;-67
2023/03/28 02:28:22;;;;;;;9.63;2.40;;;-1.80;99.90;;;;;;4852592;29;20138;-69
2023/03/28 02:31:12;;;;;;;1.48;1.25;;;-1.80;99.90;;;;;;4849617;29;20125;-67
2023/03/28 02:33:41;;;;;;;6.57;1.65;;;-1.80;99.90;;;;;;4862864;29;20045;-68
2023/03/28 02:36:10;;;;;;;10.57;1.40;;;-1.90;99.90;;;;;;4848812;29;20081;-68
2023/03/28 02:38:44;;;;;;;2.47;1.42;;;-1.90;99.90;;;;;;4853368;29;20050;-67
2023/03/28 02:41:38;;;;;;;2.70;1.75;;;-1.90;99.90;;;;;;4858111;29;20054;-69
2023/03/28 02:44:11;;;;;;;2.42;1.35;;;-1.80;99.90;;;;;;4860258;29;20156;-71
2023/03/28 02:46:54;;;;;;;3.20;1.73;;;-1.80;99.90;;;;;;4848498;29;20049;-72
2023/03/28 02:49:21;;;;;;;5.53;1.88;;;-1.80;99.90;;;;;;4846115;29;20045;-66
2023/03/28 02:52:33;;;;;;;2.55;1.60;;;-1.70;99.90;;;;;;4843424;29;20057;-65
2023/03/28 02:55:07;;;;;;;6.13;1.23;;;-1.70;99.90;;;;;;4840152;29;20045;-67
2023/03/28 02:57:49;;;;;;;7.95;1.92;;;-1.70;99.90;;;;;;4846047;29;20061;-66
2023/03/28 03:00:18;;;;;;;2.35;1.45;;;-1.80;99.90;;;;;;4860119;29;20053;-70
2023/03/28 03:02:49;;;;;;;2.53;1.42;;;-1.80;99.90;;;;;;4845415;29;20140;-70
2023/03/28 03:05:19;;;;;;;1.98;1.35;;;-1.80;99.90;;;;;;4840099;29;20053;-66
2023/03/28 03:07:48;;;;;;;7.63;2.85;;;-1.80;99.90;;;;;;4845150;29;20073;-68
2023/03/28 03:10:17;;;;;;;3.40;1.67;;;-1.80;99.90;;;;;;4840285;29;20553;-72
2023/03/28 03:12:46;;;;;;;4.10;1.63;;;-1.80;99.90;;;;;;4848049;29;20105;-74
2023/03/28 03:15:15;;;;;;;6.28;1.90;;;-1.90;99.90;;;;;;4848128;29;20057;-67
2023/03/28 03:17:53;;;;;;;5.05;1.75;;;-1.90;99.90;;;;;;4858871;29;20158;-66
2023/03/28 03:20:25;;;;;;;7.75;2.00;;;-1.90;99.90;;;;;;4848925;29;20094;-66
2023/03/28 03:22:55;;;;;;;5.30;2.05;;;-1.80;99.90;;;;;;4859621;29;20050;-65
2023/03/28 03:25:22;;;;;;;2.97;1.30;;;-1.80;99.90;;;;;;4841562;29;20078;-68
2023/03/28 03:28:04;;;;;;;2.95;1.67;;;-1.90;99.90;;;;;;4850430;29;20380;-65
2023/03/28 03:30:31;;;;;;;2.33;1.38;;;-1.90;99.90;;;;;;4860661;29;20484;-74
2023/03/28 03:33:21;;;;;;;2.90;1.83;;;-1.90;99.90;;;;;;4828177;29;20049;-67
2023/03/28 03:35:54;;;;;;;5.70;1.83;;;-1.90;99.90;;;;;;4850582;29;20711;-66
2023/03/28 03:38:21;;;;;;;9.23;2.08;;;-1.90;99.90;;;;;;4859565;29;20489;-66
2023/03/28 03:40:48;;;;;;;3.72;2.35;;;-1.90;99.90;;;;;;4844233;29;20410;-69
2023/03/28 03:43:15;;;;;;;6.78;1.98;;;-1.90;99.90;;;;;;4857039;29;20187;-72
2023/03/28 03:45:44;;;;;;;4.00;1.33;;;-1.90;99.90;;;;;;4862236;29;20057;-66
2023/03/28 03:48:12;;;;;;;4.32;1.45;;;-1.90;99.90;;;;;;4848166;29;20132;-71
2023/03/28 03:50:39;;;;;;;3.55;1.70;;;-1.90;99.90;;;;;;4857077;29;20054;-72
2023/03/28 03:53:15;;;;;;;3.25;1.58;;;-1.90;99.90;;;;;;4859107;29;20701;-65
2023/03/28 03:56:00;;;;;;;3.90;1.60;;;-1.90;99.90;;;;;;4855914;29;20081;-67
2023/03/28 03:58:37;;;;;;;4.30;1.42;;;-1.90;99.90;;;;;;4862046;29;20053;-65
2023/03/28 04:01:12;;;;;;;7.55;1.52;;;-1.90;99.90;;;;;;4858767;29;20046;-72
2023/03/28 04:03:41;;;;;;;3.70;1.90;;;-1.90;99.90;;;;;;4854147;29;20545;-66
2023/03/28 04:06:10;;;;;;;4.38;1.77;;;-1.90;99.90;;;;;;4850288;29;20070;-65
2023/03/28 04:08:37;;;;;;;5.72;2.00;;;-1.90;99.90;;;;;;4842508;29;20134;-72
2023/03/28 04:11:06;;;;;;;9.23;1.50;;;-2.00;99.90;;;;;;4844731;29;20446;-68
2023/03/28 04:13:37;;;;;;;7.07;2.35;;;-2.00;99.90;;;;;;4860058;29;20049;-67
2023/03/28 04:16:05;;;;;;;4.50;1.50;;;-2.00;99.90;;;;;;4844807;29;20045;-68
2023/03/28 04:18:38;;;;;;;3.75;2.05;;;-2.00;99.90;;;;;;4848201;29;20049;-72
2023/03/28 04:21:08;;;;;;;4.38;1.45;;;-2.00;99.90;;;;;;4856114;29;20233;-68
2023/03/28 04:23:42;;;;;;;6.30;1.25;;;-2.00;99.90;;;;;;4847448;29;20472;-64
2023/03/28 04:26:34;;;;;;;9.05;2.03;;;-2.00;99.90;;;;;;4843797;29;20679;-65
2023/03/28 04:29:24;;;;;;;3.00;1.25;;;-2.00;99.90;;;;;;4836592;29;20042;-74
2023/03/28 04:32:11;;;;;;;8.75;1.52;;;-2.00;99.90;;;;;;4844970;29;20085;-66
2023/03/28 04:34:56;;;;;;;4.10;1.20;;;-2.00;99.90;;;;;;4845177;29;20053;-68
2023/03/28 04:37:24;;;;;;;2.25;1.30;;;-2.00;99.90;;;;;;4841846;29;20056;-65
2023/03/28 04:39:54;;;;;;;6.88;1.40;;;-2.00;99.90;;;;;;4836663;29;20053;-69
2023/03/28 04:42:44;;;;;;;3.28;1.63;;;-2.00;99.90;;;;;;4833342;29;20044;-65
2023/03/28 04:45:14;;;;;;;3.88;1.70;;;-2.10;99.90;;;;;;4845191;29;20120;-70
2023/03/28 04:47:45;;;;;;;6.75;2.42;;;-2.10;99.90;;;;;;4855838;29;20130;-64
2023/03/28 04:50:19;;;;;;;4.20;2.30;;;-2.00;99.90;;;;;;4844168;29;20061;-65
2023/03/28 04:52:46;;;;;;;4.13;1.63;;;-2.10;99.90;;;;;;4843406;29;20037;-62
2023/03/28 04:55:15;;;;;;;3.08;1.08;;;-2.00;99.90;;;;;;4851237;29;20781;-66
2023/03/28 04:57:44;;;;;;;4.78;1.83;;;-2.00;99.90;;;;;;4857756;29;20075;-70
2023/03/28 05:00:12;;;;;;;5.70;1.90;;;-1.90;99.90;;;;;;4857028;29;20050;-65
2023/03/28 05:03:03;;;;;;;2.60;1.88;;;-2.00;99.90;;;;;;4845266;29;20449;-64
2023/03/28 05:05:41;;;;;;;7.93;2.03;;;-2.00;99.90;;;;;;4862312;29;20046;-64
2023/03/28 05:08:12;;;;;;;3.65;1.83;;;-2.00;99.90;;;;;;4848175;29;20056;-65
2023/03/28 05:10:40;;;;;;;5.72;1.42;;;-2.00;99.90;;;;;;4859716;29;20050;-63
2023/03/28 05:13:09;;;;;;;4.22;1.88;;;-2.00;99.90;;;;;;4842895;29;20085;-64
2023/03/28 05:15:46;;;;;;;1.63;1.20;;;-2.00;99.90;;;;;;4845678;29;20137;-67
2023/03/28 05:18:21;;;;;;;5.50;3.15;;;-2.10;99.90;;;;;;4852052;29;20485;-63
2023/03/28 05:20:49;;;;;;;1.50;1.38;;;-2.10;99.90;;;;;;4866791;29;20623;-68
2023/03/28 05:23:17;;;;;;;2.67;1.55;;;-2.10;99.90;;;;;;4851666;29;20527;-68
2023/03/28 05:25:52;;;;;;;2.10;1.58;;;-2.00;99.90;;;;;;4862784;29;20053;-63
2023/03/28 05:28:21;;;;;;;2.33;1.30;;;-2.00;99.90;;;;;;4863587;29;20160;-67
2023/03/28 05:30:50;;;;;;;1.30;1.20;;;-2.00;99.90;;;;;;4848591;29;20140;-69
2023/03/28 05:33:17;;;;;;;4.75;1.80;;;-2.10;99.90;;;;;;4850181;29;20140;-72
2023/03/28 05:35:46;;;;;;;6.45;2.33;;;-2.00;99.90;;;;;;4851629;29;20797;-66
2023/03/28 05:38:13;;;;;;;4.00;1.98;;;-2.10;99.90;;;;;;4847655;29;20046;-67
2023/03/28 05:40:41;;;;;;;9.10;2.13;;;-2.10;99.90;;;;;;4845906;29;20056;-64
2023/03/28 05:43:08;;;;;;;4.30;1.70;;;-2.00;99.90;;;;;;4848361;29;20113;-65
2023/03/28 05:45:35;;;;;;;2.75;1.70;;;-2.10;99.90;;;;;;4847046;29;20588;-70
2023/03/28 05:48:10;;;;;;;3.05;1.45;;;-2.10;99.90;;;;;;4861352;29;20525;-62
2023/03/28 05:50:37;;;;;;;3.13;1.55;;;-2.10;99.90;;;;;;4845677;29;20525;-65
2023/03/28 05:53:05;;;;;;;2.90;1.35;;;-2.10;99.90;;;;;;4848614;29;20564;-64
2023/03/28 05:55:32;;;;;;;7.00;1.58;;;-2.20;99.90;;;;;;4873905;29;20441;-67
2023/03/28 05:58:02;;;;;;;5.53;1.20;;;-2.20;99.90;;;;;;4860093;29;20073;-63
2023/03/28 06:00:38;;;;;;;2.85;1.20;;;-2.20;99.90;;;;;;4868788;29;20178;-64
2023/03/28 06:03:06;;;;;;;4.93;2.58;;;-2.10;99.90;;;;;;4845124;29;20045;-64
2023/03/28 06:05:36;;;;;;;10.00;3.08;;;-2.10;99.90;;;;;;4850441;29;20137;-63
2023/03/28 06:08:09;;;;;;;10.07;2.40;;;-2.10;99.90;;;;;;4865701;29;20821;-68
2023/03/28 06:10:36;;;;;;;5.07;2.00;;;-2.10;99.90;;;;;;4864929;29;20484;-64
2023/03/28 06:13:23;;;;;;;2.78;1.45;;;-2.10;99.90;;;;;;4848026;29;20046;-68
2023/03/28 06:15:50;;;;;;;3.22;1.73;;;-2.10;99.90;;;;;;4846799;29;20144;-71
2023/03/28 06:18:21;;;;;;;6.43;1.45;;;-2.00;99.90;;;;;;4844871;29;20140;-65
2023/03/28 06:20:49;;;;;;;5.63;1.80;;;-2.00;99.90;;;;;;4843367;29;20393;-71
2023/03/28 06:23:16;;;;;;;2.45;1.35;;;-2.00;99.90;;;;;;4845146;29;20058;-63
2023/03/28 06:25:43;;;;;;;2.65;1.63;;;-2.10;99.90;;;;;;4849524;29;20045;-66
2023/03/28 06:28:13;;;;;;;8.43;1.60;;;-2.10;99.90;;;;;;4850875;29;20075;-65
2023/03/28 06:31:00;;;;;;;2.17;1.98;;;-1.90;99.90;;;;;;4844107;29;20060;-70
2023/03/28 06:33:27;;;;;;;5.40;1.30;;;-2.00;99.90;;;;;;4853350;29;20172;-66
2023/03/28 06:35:54;;;;;;;10.18;1.48;;;-2.00;99.90;;;;;;4859683;29;20110;-64
2023/03/28 06:38:22;;;;;;;7.90;1.92;;;-1.90;99.90;;;;;;4845712;29;20061;-70
2023/03/28 06:40:51;;;;;;;5.63;1.75;;;-1.90;99.90;;;;;;4846867;29;20136;-67
2023/03/28 06:43:18;;;;;;;17.42;2.63;;;-1.90;99.90;;;;;;4839015;29;20070;-67
2023/03/28 06:45:47;;;;;;;1.35;1.25;;;-1.80;99.90;;;;;;4849467;29;20056;-67
2023/03/28 06:48:14;;;;;;;4.80;2.47;;;-1.90;99.90;;;;;;4846824;29;20045;-65
2023/03/28 06:51:02;;;;;;;4.05;2.58;;;-1.80;99.90;;;;;;4839220;29;20103;-69
2023/03/28 06:53:29;;;;;;;2.67;1.33;;;-1.90;99.90;;;;;;4844496;29;20449;-68
2023/03/28 06:55:58;;;;;;;3.72;1.83;;;-1.90;99.90;;;;;;4834243;29;20417;-65
2023/03/28 06:58:25;;;;;;;3.15;1.80;;;-1.80;99.90;;;;;;4861118;29;20050;-63
2023/03/28 07:01:00;;;;;;;6.28;3.33;;;-1.80;99.90;;;;;;4846139;29;20056;-67
2023/03/28 07:03:46;;;;;;;2.75;1.88;;;-1.80;99.90;;;;;;4846414;29;20064;-65
2023/03/28 07:06:20;;;;;;;3.10;1.27;;;-1.80;99.90;;;;;;4845122;29;20060;-68
2023/03/28 07:08:47;;;;;;;6.05;1.60;;;-1.80;99.90;;;;;;4860678;29;20054;-64
2023/03/28 07:11:16;;;;;;;2.13;1.63;;;-1.60;99.90;;;;;;4861426;29;20396;-66
2023/03/28 07:13:47;;;;;;;2.25;1.70;;;-1.70;99.90;;;;;;4861461;29;20133;-63
2023/03/28 07:16:15;;;;;;;2.60;1.27;;;-1.70;99.90;;;;;;4847537;29;20057;-66
2023/03/28 07:18:42;;;;;;;1.27;0.90;;;-1.70;99.90;;;;;;4850604;29;20045;-64
2023/03/28 07:21:16;;;;;;;1.42;0.95;;;-1.60;99.90;;;;;;4859905;29;20484;-65
2023/03/28 07:23:43;;;;;;;1.88;1.00;;;-1.50;99.90;;;;;;4845624;29;20077;-67
2023/03/28 07:26:14;;;;;;;2.97;1.40;;;-1.50;99.90;;;;;;4841578;29;20533;-71
2023/03/28 07:28:41;;;;;;;4.05;2.05;;;-1.40;99.90;;;;;;4849103;29;20042;-70
2023/03/28 07:31:08;;;;;;;3.45;1.55;;;-1.40;99.90;;;;;;4847220;29;20221;-69
2023/03/28 07:33:37;;;;;;;5.60;1.33;;;-1.40;99.90;;;;;;4857217;29;20057;-68
2023/03/28 07:36:12;;;;;;;3.35;1.73;;;-1.50;99.90;;;;;;4860265;29;20061;-66
2023/03/28 07:38:40;;;;;;;6.22;1.77;;;-1.50;99.90;;;;;;4852762;29;20141;-70
2023/03/28 07:41:08;;;;;;;2.28;1.30;;;-1.50;99.90;;;;;;4848385;29;20049;-65
2023/03/28 07:43:37;;;;;;;4.38;1.50;;;-1.50;99.90;;;;;;4838800;29;20452;-67
2023/03/28 07:46:10;;;;;;;3.53;1.57;;;-1.60;99.90;;;;;;4845170;29;20170;-66
2023/03/28 07:48:39;;;;;;;6.45;2.03;;;-1.60;99.90;;;;;;4846539;29;20405;-63
2023/03/28 07:51:08;;;;;;;4.80;1.48;;;-1.60;99.90;;;;;;4842750;29;20050;-67
2023/03/28 07:53:39;;;;;;;1.77;1.50;;;-1.50;99.90;;;;;;4844588;29;20056;-65
2023/03/28 07:56:10;;;;;;;;;;;-1.40;99.90;;;;;;4842961;29;20538;-66
2023/03/28 07:58:56;;;;;;;6.35;1.40;;;-1.40;99.90;;;;;;4856807;29;20677;-69
2023/03/28 08:01:24;;;;;;;2.22;1.73;;;-1.40;99.90;;;;;;4863925;29;20441;-67
2023/03/28 08:03:58;;;;;;;3.70;1.10;;;-1.40;99.90;;;;;;4845190;29;20052;-69
2023/03/28 08:06:37;;;;;;;3.15;1.17;;;-1.50;99.90;;;;;;4844555;29;20050;-64
2023/03/28 08:09:09;;;;;;;2.72;1.50;;;-1.40;99.90;;;;;;4854564;29;20054;-65
2023/03/28 08:11:41;;;;;;;3.60;1.70;;;-1.30;99.90;;;;;;4845474;29;20149;-66
2023/03/28 08:14:14;;;;;;;2.00;1.00;;;-1.20;99.90;;;;;;4857757;29;20087;-68
2023/03/28 08:16:43;;;;;;;2.03;1.58;;;-1.20;99.90;;;;;;4861628;29;20052;-63
2023/03/28 08:19:10;;;;;;;1.27;0.98;;;-1.30;99.90;;;;;;4839068;29;20149;-64
2023/03/28 08:21:57;;;;;;;6.55;4.03;;;-1.30;99.90;;;;;;4847190;29;20057;-68
2023/03/28 08:24:26;;;;;;;4.88;1.42;;;-1.30;99.90;;;;;;4845077;29;20049;-65
2023/03/28 08:27:09;;;;;;;2.55;1.20;;;-1.10;99.90;;;;;;4854614;29;20492;-71
2023/03/28 08:29:36;;;;;;;4.13;1.10;;;-1.10;99.90;;;;;;4857671;29;20109;-65
2023/03/28 08:32:05;;;;;;;4.10;1.50;;;-1.10;99.90;;;;;;4858956;29;20496;-67
2023/03/28 08:34:33;;;;;;;3.92;1.35;;;-1.00;99.90;;;;;;4839603;29;20077;-68
2023/03/28 08:37:05;;;;;;;3.92;1.30;;;-1.10;99.90;;;;;;4839494;29;20062;-68
2023/03/28 08:39:33;;;;;;;3.15;1.40;;;-1.00;99.90;;;;;;4846842;29;20064;-69
2023/03/28 08:42:28;;;;;;;1.90;1.13;;;-1.10;99.90;;;;;;4853636;29;20134;-74
2023/03/28 08:44:58;;;;;;;7.18;1.08;;;-0.90;99.90;;;;;;4840613;29;20056;-66
2023/03/28 08:47:31;;;;;;;4.43;1.27;;;-0.90;99.90;;;;;;4856939;29;20072;-70
2023/03/28 08:50:14;;;;;;;2.95;1.35;;;-0.90;99.90;;;;;;4848943;29;20140;-67
2023/03/28 08:52:42;;;;;;;3.60;1.65;;;-0.80;99.90;;;;;;4840812;29;20153;-69
2023/03/28 08:55:30;;;;;;;5.10;1.60;;;-0.80;99.90;;;;;;4837598;29;20049;-67
2023/03/28 08:57:58;;;;;;;2.90;1.77;;;-0.60;99.90;;;;;;4842902;29;20053;-73
2023/03/28 09:00:30;;;;;;;1.80;1.35;;;-0.70;99.90;;;;;;4839217;29;20077;-64
2023/03/28 09:02:59;;;;;;;3.22;1.05;;;-0.70;99.90;;;;;;4847315;29;20943;-67
2023/03/28 09:05:40;;;;;;;5.68;1.60;;;-0.80;99.90;;;;;;4849365;29;20046;-63
2023/03/28 09:08:37;;;;;;;1.58;1.05;;;-0.80;99.90;;;;;;4844290;29;20432;-68
2023/03/28 09:11:25;;;;;;;5.53;1.42;;;-0.80;99.90;;;;;;4858596;29;20168;-64
2023/03/28 09:14:01;;;;;;;2.33;0.73;;;-0.80;99.90;;;;;;4841646;29;20053;-73
2023/03/28 09:16:34;;;;;;;5.25;2.53;;;-0.80;99.90;;;;;;4843962;29;20041;-74
2023/03/28 09:19:43;;;;;;;1.98;1.05;;;-0.80;99.90;;;;;;4841592;29;20167;-71
2023/03/28 09:23:17;;;;;;;0.90;0.70;;;-0.70;99.90;;;;;;4844267;29;20433;-70
2023/03/28 09:26:26;;;;;;;5.05;0.93;;;-0.70;99.90;;;;;;4845899;29;20393;-69
2023/03/28 09:29:24;;;;;;;3.42;1.23;;;-0.60;99.90;;;;;;4841272;29;20045;-68
2023/03/28 09:31:58;;;;;;;3.67;1.38;;;-0.60;99.90;;;;;;4856890;29;20125;-67
2023/03/28 09:34:32;;;;;;;2.78;1.13;;;-0.60;99.90;;;;;;4860122;29;20054;-67
2023/03/28 09:37:12;;;;;;;7.00;1.20;;;-0.60;99.90;;;;;;4845186;29;20123;-66
2023/03/28 09:39:52;;;;;;;2.75;1.25;;;-0.60;99.90;;;;;;4858831;29;20053;-73
2023/03/28 09:42:33;;;;;;;4.13;1.17;;;-0.60;99.90;;;;;;4843123;29;20701;-68
2023/03/28 09:46:01;;;;;;;6.38;1.65;;;-0.60;99.90;;;;;;4785193;29;20142;-68
2023/03/28 09:48:55;;;;;;;1.10;1.00;;;-0.60;99.90;;;;;;4790323;29;20077;-68
2023/03/28 09:51:25;;;;;;;4.00;1.20;;;-0.70;99.90;;;;;;4842213;29;20061;-67
2023/03/28 09:53:53;;;;;;;7.30;1.27;;;-0.70;99.90;;;;;;4839651;29;20335;-65
2023/03/28 09:56:28;;;;;;;3.22;1.40;;;-0.70;99.90;;;;;;4857290;29;20140;-65
2023/03/28 09:59:09;;;;;;;4.03;1.25;;;-0.60;99.90;;;;;;4856799;29;20156;-65
2023/03/28 10:01:49;;;;;;;4.65;0.80;;;-0.50;99.90;;;;;;4848077;29;20045;-73
2023/03/28 10:04:37;;;;;;;1.85;1.27;;;-0.70;99.90;;;;;;4867486;29;20045;-70
2023/03/28 10:07:41;;;;;;;4.07;1.58;;;-0.80;99.90;;;;;;4843097;29;20058;-71
2023/03/28 10:10:23;;;;;;;5.07;1.33;;;-0.70;99.90;;;;;;4847248;29;20041;-71
2023/03/28 10:13:01;;;;;;;2.70;1.58;;;-0.60;99.90;;;;;;4844473;29;20165;-65
2023/03/28 10:15:32;;;;;;;2.05;1.20;;;-0.50;99.90;;;;;;4859568;29;20141;-71
2023/03/28 10:18:20;;;;;;;10.30;1.20;;;-0.40;99.90;;;;;;4843889;29;20056;-68
2023/03/28 10:21:15;;;;;;;5.30;1.52;;;-0.50;99.90;;;;;;4848120;29;20045;-72
2023/03/28 10:24:02;;;;;;;2.40;1.67;;;-0.30;99.90;;;;;;4863229;29;20077;-65
2023/03/28 10:26:30;;;;;;;5.47;1.25;;;-0.30;99.90;;;;;;4862556;29;20041;-71
2023/03/28 10:29:04;;;;;;;2.70;1.52;;;-0.30;99.90;;;;;;4842242;29;20250;-64
2023/03/28 10:31:32;;;;;;;1.88;1.17;;;-0.30;99.90;;;;;;4847306;29;20054;-71
2023/03/28 10:34:30;;;;;;;2.20;1.20;;;-0.40;99.90;;;;;;4845430;29;20046;-66
2023/03/28 10:36:57;;;;;;;3.70;1.02;;;-0.50;99.90;;;;;;4846621;29;20503;-66
2023/03/28 10:39:36;;;;;;;6.97;2.58;;;-0.40;99.90;;;;;;4849503;29;20073;-68
2023/03/28 10:42:21;;;;;;;1.65;1.17;;;-0.30;99.90;;;;;;4848599;29;20083;-65
2023/03/28 10:45:00;;;;;;;1.75;0.90;;;-0.30;99.90;;;;;;4847598;29;20053;-70
2023/03/28 10:47:30;;;;;;;2.10;1.08;;;-0.10;99.90;;;;;;4847233;29;20132;-68
2023/03/28 10:50:05;;;;;;;2.13;1.08;;;-0.20;99.90;;;;;;4841312;29;20465;-66
2023/03/28 10:52:38;;;;;;;1.90;0.98;;;-0.30;99.90;;;;;;4850517;29;20102;-71
2023/03/28 10:55:22;;;;;;;2.78;1.33;;;-0.40;99.90;;;;;;4863015;29;20385;-63
2023/03/28 10:58:45;;;;;;;3.75;1.15;;;-0.10;99.90;;;;;;4849511;29;20053;-64
2023/03/28 11:01:23;;;;;;;0.82;0.70;;;-0.20;99.90;;;;;;4858009;29;20057;-63
2023/03/28 11:04:34;;;;;;;6.68;0.90;;;-0.20;99.90;;;;;;4860676;29;20081;-66
2023/03/28 11:07:31;;;;;;;3.15;1.15;;;-0.20;99.90;;;;;;4841939;29;20045;-70
2023/03/28 11:10:55;;;;;;;6.32;1.30;;;-0.30;99.90;;;;;;4829634;29;20053;-68
2023/03/28 11:13:53;;;;;;;3.75;0.90;;;-0.20;99.90;;;;;;4862832;29;20053;-62
2023/03/28 11:16:42;;;;;;;1.05;0.98;;;-0.20;99.90;;;;;;4844864;29;20050;-67
2023/03/28 11:20:20;;;;;;;2.25;1.05;;;-0.10;99.90;;;;;;4859365;29;20048;-66
2023/03/28 11:23:01;;;;;;;2.33;1.02;;;0.10;99.90;;;;;;4821026;29;20050;-64
2023/03/28 11:26:12;;;;;;;4.20;2.27;;;0.10;99.90;;;;;;4810429;29;20045;-61
2023/03/28 11:29:19;;;;;;;2.85;0.68;;;0.10;99.90;;;;;;4848387;29;20121;-64
2023/03/28 11:31:59;;;;;;;1.58;0.77;;;0.10;99.90;;;;;;4860292;29;20049;-63
2023/03/28 11:34:41;;;;;;;1.17;0.70;;;0.00;99.90;;;;;;4848027;29;20125;-61
2023/03/28 11:37:21;;;;;;;1.73;1.38;;;0.00;99.90;;;;;;4848015;29;20068;-63
2023/03/28 11:39:59;;;;;;;1.60;0.60;;;0.10;99.90;;;;;;4860950;29;20041;-64
2023/03/28 11:43:02;;;;;;;2.40;0.95;;;0.10;99.90;;;;;;4861882;29;20074;-65
2023/03/28 11:45:50;;;;;;;6.85;1.00;;;0.10;99.90;;;;;;4852001;29;20045;-68
2023/03/28 11:49:00;;;;;;;5.88;1.08;;;0.00;99.90;;;;;;4848968;29;20144;-62
2023/03/28 11:51:37;;;;;;;0.63;0.60;;;0.10;99.90;;;;;;4846145;29;20404;-67
2023/03/28 11:54:11;;;;;;;3.55;1.10;;;-0.20;99.90;;;;;;4856583;29;20049;-62
2023/03/28 11:56:49;;;;;;;3.05;1.13;;;0.00;99.90;;;;;;4856057;29;20050;-61
2023/03/28 12:00:08;;;;;;;2.15;0.80;;;0.20;99.90;;;;;;4843125;29;20050;-66
2023/03/28 12:05:35;;;;;;;1.20;0.60;;;0.40;99.90;;;;;;4845210;29;20422;-64
2023/03/28 12:08:11;;;;;;;3.10;1.73;;;0.40;99.90;;;;;;4849644;29;20090;-62
2023/03/28 12:10:49;;;;;;;2.85;0.80;;;0.40;99.90;;;;;;4831087;29;20049;-62
2023/03/28 12:13:40;;;;;;;1.85;0.82;;;0.40;99.90;;;;;;4871373;29;20073;-63
2023/03/28 12:16:22;;;;;;;1.25;0.68;;;0.40;99.90;;;;;;4869614;29;20057;-62
2023/03/28 12:18:58;;;;;;;2.53;1.17;;;0.20;99.90;;;;;;4862099;29;20061;-61
2023/03/28 12:21:48;;;;;;;2.42;1.17;;;0.30;99.90;;;;;;4864678;29;20053;-69
2023/03/28 12:24:34;;;;;;;1.30;0.77;;;0.50;99.90;;;;;;4843625;29;20627;-66
2023/03/28 12:27:25;;;;;;;5.53;1.52;;;0.50;99.90;;;;;;4825984;29;20060;-61
2023/03/28 12:30:03;;;;;;;1.40;1.27;;;0.60;99.90;;;;;;4844247;29;20057;-62
2023/03/28 12:32:55;;;;;;;3.08;1.08;;;0.80;99.90;;;;;;4846542;29;20053;-62
2023/03/28 12:35:35;;;;;;;5.25;1.13;;;0.60;99.90;;;;;;4881185;29;20576;-66
2023/03/28 12:38:35;;;;;;;8.50;1.05;;;0.70;99.90;;;;;;4870135;29;20131;-63
2023/03/28 12:41:18;;;;;;;5.80;1.20;;;0.60;99.90;;;;;;4883108;29;20059;-66
2023/03/28 12:43:59;;;;;;;3.50;0.75;;;0.50;99.90;;;;;;4871641;29;20131;-67
2023/03/28 12:46:44;;;;;;;1.42;1.00;;;0.50;99.90;;;;;;4869761;29;20051;-65
2023/03/28 12:49:35;;;;;;;0.80;0.70;;;0.40;99.90;;;;;;4865356;29;20528;-67
2023/03/28 12:52:11;;;;;;;2.33;1.48;;;0.40;99.90;;;;;;4869542;29;20056;-66
2023/03/28 12:55:25;;;;;;;1.63;1.13;;;0.40;99.90;;;;;;4869158;29;20580;-66
2023/03/28 12:58:32;;;;;;;2.28;0.68;;;0.50;99.90;;;;;;4839394;29;20116;-62
2023/03/28 13:02:00;;;;;;;1.60;1.10;;;0.80;99.90;;;;;;4880366;29;20062;-64
2023/03/28 13:04:49;;;;;;;1.85;0.90;;;0.90;99.90;;;;;;4844934;29;20067;-69
2023/03/28 13:07:56;;;;;;;1.13;1.05;;;1.00;99.90;;;;;;4885094;29;20112;-65
2023/03/28 13:10:37;;;;;;;2.72;0.70;;;0.80;99.90;;;;;;4887184;29;20062;-66
2023/03/28 13:13:15;;;;;;;1.27;1.13;;;0.90;99.90;;;;;;4885466;29;20072;-68
2023/03/28 13:16:05;;;;;;;3.17;0.75;;;0.90;99.90;;;;;;4884317;29;20048;-62
2023/03/28 13:18:33;;;;;;;1.80;0.70;;;0.90;99.90;;;;;;4884768;29;20074;-67
2023/03/28 13:21:03;;;;;;;3.40;0.90;;;1.00;99.90;;;;;;4885031;29;20056;-63
2023/03/28 13:23:44;;;;;;;2.05;0.63;;;0.90;99.90;;;;;;4880927;29;20440;-68
2023/03/28 13:26:11;;;;;;;3.05;1.88;;;0.90;99.90;;;;;;4885908;29;20045;-62
2023/03/28 13:28:51;;;;;;;1.05;0.80;;;1.10;99.90;;;;;;4884707;29;20067;-64
2023/03/28 13:31:25;;;;;;;2.85;0.82;;;1.20;99.90;;;;;;4884403;29;20049;-62
2023/03/28 13:34:00;;;;;;;2.85;0.75;;;1.00;99.90;;;;;;4881212;29;20059;-64
2023/03/28 13:36:34;;;;;;;7.38;0.85;;;1.20;99.90;;;;;;4886443;29;20143;-65
2023/03/28 13:39:17;;;;;;;1.48;0.98;;;1.00;99.90;;;;;;4885671;29;20055;-68
2023/03/28 13:41:44;;;;;;;2.33;0.95;;;1.00;99.90;;;;;;4889135;29;20057;-64
2023/03/28 13:44:15;;;;;;;0.70;0.70;;;0.90;99.90;;;;;;4887004;29;20044;-62
2023/03/28 13:46:45;;;;;;;1.35;0.52;;;0.80;99.90;;;;;;4890818;29;20059;-63
2023/03/28 13:49:40;;;;;;;2.22;0.73;;;0.70;99.90;;;;;;4887570;29;20410;-63